sensor_id;sensor_type;location;lat;lon;timestamp;pressure;altitude;pressure_sealevel;temperature;humidity
80410;BME280;69746;45.596;10.154;2023-07-29T00:00:45;99234.75;;;26.82;48.59
80410;BME280;69746;45.596;10.154;2023-07-29T00:03:12;99240.25;;;26.79;48.70
80410;BME280;69746;45.596;10.154;2023-07-29T00:05:38;99239.00;;;26.76;48.86
80410;BME280;69746;45.596;10.154;2023-07-29T00:08:04;99235.38;;;26.75;48.59
80410;BME280;69746;45.596;10.154;2023-07-29T00:10:37;99242.50;;;26.73;48.52
80410;BME280;69746;45.596;10.154;2023-07-29T00:13:03;99250.44;;;26.71;48.72
80410;BME280;69746;45.596;10.154;2023-07-29T00:15:29;99241.56;;;26.69;48.44
80410;BME280;69746;45.596;10.154;2023-07-29T00:17:55;99246.03;;;26.70;48.19
80410;BME280;69746;45.596;10.154;2023-07-29T00:20:21;99240.06;;;26.71;48.32
80410;BME280;69746;45.596;10.154;2023-07-29T00:22:46;99241.94;;;26.67;47.75
80410;BME280;69746;45.596;10.154;2023-07-29T00:25:16;99241.47;;;26.65;47.85
80410;BME280;69746;45.596;10.154;2023-07-29T00:27:44;99244.63;;;26.64;47.86
80410;BME280;69746;45.596;10.154;2023-07-29T00:30:10;99244.28;;;26.65;47.61
80410;BME280;69746;45.596;10.154;2023-07-29T00:32:36;99238.22;;;26.63;47.30
80410;BME280;69746;45.596;10.154;2023-07-29T00:35:02;99251.31;;;26.59;47.46
80410;BME280;69746;45.596;10.154;2023-07-29T00:37:30;99247.69;;;26.59;47.40
80410;BME280;69746;45.596;10.154;2023-07-29T00:39:56;99252.47;;;26.58;47.42
80410;BME280;69746;45.596;10.154;2023-07-29T00:42:22;99252.34;;;26.55;47.50
80410;BME280;69746;45.596;10.154;2023-07-29T00:44:48;99241.88;;;26.52;47.64
80410;BME280;69746;45.596;10.154;2023-07-29T00:47:15;99247.72;;;26.47;48.05
80410;BME280;69746;45.596;10.154;2023-07-29T00:49:43;99255.41;;;26.50;47.90
80410;BME280;69746;45.596;10.154;2023-07-29T00:52:09;99255.31;;;26.46;48.69
80410;BME280;69746;45.596;10.154;2023-07-29T00:54:40;99254.59;;;26.49;48.44
80410;BME280;69746;45.596;10.154;2023-07-29T00:57:08;99250.16;;;26.48;48.58
80410;BME280;69746;45.596;10.154;2023-07-29T00:59:35;99252.16;;;26.48;48.67
80410;BME280;69746;45.596;10.154;2023-07-29T01:02:01;99259.97;;;26.42;48.50
80410;BME280;69746;45.596;10.154;2023-07-29T01:04:27;99256.34;;;26.41;48.19
80410;BME280;69746;45.596;10.154;2023-07-29T01:18:05;99247.63;;;26.31;48.37
80410;BME280;69746;45.596;10.154;2023-07-29T01:20:38;99252.38;;;26.30;48.70
80410;BME280;69746;45.596;10.154;2023-07-29T01:23:04;99246.69;;;26.27;48.65
80410;BME280;69746;45.596;10.154;2023-07-29T01:25:30;99247.84;;;26.26;48.27
80410;BME280;69746;45.596;10.154;2023-07-29T01:27:56;99249.00;;;26.25;48.72
80410;BME280;69746;45.596;10.154;2023-07-29T01:30:36;99240.97;;;26.23;48.29
80410;BME280;69746;45.596;10.154;2023-07-29T01:33:16;99230.16;;;26.22;48.57
80410;BME280;69746;45.596;10.154;2023-07-29T01:35:57;99231.69;;;26.19;48.42
80410;BME280;69746;45.596;10.154;2023-07-29T01:38:33;99227.72;;;26.20;48.79
80410;BME280;69746;45.596;10.154;2023-07-29T01:41:01;99218.88;;;26.18;48.59
80410;BME280;69746;45.596;10.154;2023-07-29T01:43:29;99220.00;;;26.17;48.81
80410;BME280;69746;45.596;10.154;2023-07-29T01:45:58;99223.97;;;26.16;48.41
80410;BME280;69746;45.596;10.154;2023-07-29T01:48:24;99227.25;;;26.18;48.65
80410;BME280;69746;45.596;10.154;2023-07-29T01:50:50;99222.47;;;26.19;48.58
80410;BME280;69746;45.596;10.154;2023-07-29T01:53:16;99215.50;;;26.12;48.28
80410;BME280;69746;45.596;10.154;2023-07-29T01:55:43;99223.41;;;26.10;48.15
80410;BME280;69746;45.596;10.154;2023-07-29T01:58:10;99225.16;;;26.15;48.45
80410;BME280;69746;45.596;10.154;2023-07-29T02:00:36;99227.94;;;26.15;48.42
80410;BME280;69746;45.596;10.154;2023-07-29T02:03:02;99225.97;;;26.15;48.39
80410;BME280;69746;45.596;10.154;2023-07-29T02:05:28;99221.66;;;26.18;47.90
80410;BME280;69746;45.596;10.154;2023-07-29T02:07:53;99228.41;;;26.17;48.22
80410;BME280;69746;45.596;10.154;2023-07-29T02:10:22;99224.34;;;26.14;48.12
80410;BME280;69746;45.596;10.154;2023-07-29T02:12:48;99234.00;;;26.17;48.22
80410;BME280;69746;45.596;10.154;2023-07-29T02:15:13;99242.72;;;26.15;48.11
80410;BME280;69746;45.596;10.154;2023-07-29T02:17:41;99239.47;;;26.13;47.97
80410;BME280;69746;45.596;10.154;2023-07-29T02:20:08;99245.06;;;26.13;48.13
80410;BME280;69746;45.596;10.154;2023-07-29T02:22:34;99238.75;;;26.16;48.13
80410;BME280;69746;45.596;10.154;2023-07-29T02:24:59;99245.06;;;26.13;48.16
80410;BME280;69746;45.596;10.154;2023-07-29T02:27:26;99252.28;;;26.14;48.32
80410;BME280;69746;45.596;10.154;2023-07-29T02:29:54;99247.88;;;26.13;48.37
80410;BME280;69746;45.596;10.154;2023-07-29T02:32:21;99249.38;;;26.11;48.40
80410;BME280;69746;45.596;10.154;2023-07-29T02:34:47;99248.56;;;26.10;48.16
80410;BME280;69746;45.596;10.154;2023-07-29T02:37:15;99250.56;;;26.10;48.15
80410;BME280;69746;45.596;10.154;2023-07-29T02:39:42;99257.31;;;26.09;48.66
80410;BME280;69746;45.596;10.154;2023-07-29T02:42:07;99257.78;;;26.11;48.53
80410;BME280;69746;45.596;10.154;2023-07-29T02:44:33;99246.84;;;26.06;48.50
80410;BME280;69746;45.596;10.154;2023-07-29T02:46:59;99260.09;;;26.09;48.47
80410;BME280;69746;45.596;10.154;2023-07-29T02:49:25;99259.75;;;26.10;48.67
80410;BME280;69746;45.596;10.154;2023-07-29T02:51:51;99254.06;;;26.07;48.53
80410;BME280;69746;45.596;10.154;2023-07-29T02:54:16;99255.22;;;26.06;48.92
80410;BME280;69746;45.596;10.154;2023-07-29T02:56:42;99256.72;;;26.03;49.06
80410;BME280;69746;45.596;10.154;2023-07-29T02:59:08;99255.09;;;26.02;48.92
80410;BME280;69746;45.596;10.154;2023-07-29T03:01:37;99255.00;;;25.99;49.34
80410;BME280;69746;45.596;10.154;2023-07-29T03:04:03;99248.59;;;25.98;49.33
80410;BME280;69746;45.596;10.154;2023-07-29T03:06:29;99250.91;;;25.96;49.26
80410;BME280;69746;45.596;10.154;2023-07-29T03:08:55;99253.34;;;25.98;49.17
80410;BME280;69746;45.596;10.154;2023-07-29T03:11:21;99261.38;;;25.99;49.29
80410;BME280;69746;45.596;10.154;2023-07-29T03:13:46;99253.00;;;25.99;48.44
80410;BME280;69746;45.596;10.154;2023-07-29T03:16:14;99256.97;;;25.98;48.58
80410;BME280;69746;45.596;10.154;2023-07-29T03:18:41;99262.19;;;26.00;48.36
80410;BME280;69746;45.596;10.154;2023-07-29T03:21:08;99267.34;;;25.98;48.12
80410;BME280;69746;45.596;10.154;2023-07-29T03:23:34;99268.16;;;25.98;48.32
80410;BME280;69746;45.596;10.154;2023-07-29T03:26:02;99266.53;;;25.97;48.03
80410;BME280;69746;45.596;10.154;2023-07-29T03:28:39;99275.38;;;25.99;48.27
80410;BME280;69746;45.596;10.154;2023-07-29T03:31:06;99271.75;;;25.99;48.33
80410;BME280;69746;45.596;10.154;2023-07-29T03:33:32;99272.56;;;25.99;48.25
80410;BME280;69746;45.596;10.154;2023-07-29T03:35:57;99266.97;;;25.99;48.44
80410;BME280;69746;45.596;10.154;2023-07-29T03:38:23;99277.81;;;26.01;48.35
80410;BME280;69746;45.596;10.154;2023-07-29T03:40:50;99273.75;;;25.98;48.06
80410;BME280;69746;45.596;10.154;2023-07-29T03:43:16;99266.88;;;25.96;47.86
80410;BME280;69746;45.596;10.154;2023-07-29T03:45:42;99266.88;;;25.96;47.89
80410;BME280;69746;45.596;10.154;2023-07-29T03:48:08;99261.63;;;25.94;47.95
80410;BME280;69746;45.596;10.154;2023-07-29T03:50:35;99272.09;;;25.97;47.93
80410;BME280;69746;45.596;10.154;2023-07-29T03:53:02;99278.16;;;25.99;47.81
80410;BME280;69746;45.596;10.154;2023-07-29T03:55:31;99282.94;;;25.99;48.07
80410;BME280;69746;45.596;10.154;2023-07-29T03:57:59;99275.72;;;25.98;47.94
80410;BME280;69746;45.596;10.154;2023-07-29T04:00:25;99268.97;;;25.99;47.99
80410;BME280;69746;45.596;10.154;2023-07-29T04:02:51;99278.06;;;25.96;48.04
80410;BME280;69746;45.596;10.154;2023-07-29T04:05:17;99280.03;;;25.95;48.03
80410;BME280;69746;45.596;10.154;2023-07-29T04:07:43;99283.66;;;25.96;48.53
80410;BME280;69746;45.596;10.154;2023-07-29T04:10:09;99280.03;;;25.95;48.79
80410;BME280;69746;45.596;10.154;2023-07-29T04:12:35;99280.38;;;25.94;48.46
80410;BME280;69746;45.596;10.154;2023-07-29T04:15:01;99287.97;;;25.93;48.78
80410;BME280;69746;45.596;10.154;2023-07-29T04:17:27;99294.81;;;25.96;48.48
80410;BME280;69746;45.596;10.154;2023-07-29T04:19:56;99294.47;;;25.97;49.06
80410;BME280;69746;45.596;10.154;2023-07-29T04:22:22;99281.66;;;25.96;49.46
80410;BME280;69746;45.596;10.154;2023-07-29T04:24:48;99290.75;;;25.93;49.14
80410;BME280;69746;45.596;10.154;2023-07-29T04:27:14;99286.31;;;25.92;48.84
80410;BME280;69746;45.596;10.154;2023-07-29T04:29:39;99298.19;;;25.89;48.89
80410;BME280;69746;45.596;10.154;2023-07-29T04:32:05;99292.13;;;25.87;48.27
80410;BME280;69746;45.596;10.154;2023-07-29T04:34:31;99293.75;;;25.88;48.34
80410;BME280;69746;45.596;10.154;2023-07-29T04:36:57;99282.59;;;25.88;48.02
80410;BME280;69746;45.596;10.154;2023-07-29T04:39:23;99286.53;;;25.87;48.41
80410;BME280;69746;45.596;10.154;2023-07-29T04:41:49;99287.34;;;25.87;48.07
80410;BME280;69746;45.596;10.154;2023-07-29T04:44:15;99287.34;;;25.87;47.90
80410;BME280;69746;45.596;10.154;2023-07-29T04:46:44;99290.97;;;25.88;48.27
80410;BME280;69746;45.596;10.154;2023-07-29T04:49:09;99302.16;;;25.88;48.09
80410;BME280;69746;45.596;10.154;2023-07-29T04:51:35;99298.88;;;25.86;47.80
80410;BME280;69746;45.596;10.154;2023-07-29T04:54:02;99302.75;;;25.81;48.04
80410;BME280;69746;45.596;10.154;2023-07-29T04:56:28;99311.47;;;25.80;47.92
80410;BME280;69746;45.596;10.154;2023-07-29T04:58:54;99303.09;;;25.80;47.75
80410;BME280;69746;45.596;10.154;2023-07-29T05:01:20;99300.97;;;25.77;48.05
80410;BME280;69746;45.596;10.154;2023-07-29T05:03:45;99302.47;;;25.74;47.93
80410;BME280;69746;45.596;10.154;2023-07-29T05:06:11;99307.38;;;25.77;48.46
80410;BME280;69746;45.596;10.154;2023-07-29T05:08:37;99319.84;;;25.80;48.63
80410;BME280;69746;45.596;10.154;2023-07-29T05:11:03;99314.25;;;25.80;48.32
80410;BME280;69746;45.596;10.154;2023-07-29T05:13:31;99310.75;;;25.83;48.64
80410;BME280;69746;45.596;10.154;2023-07-29T05:15:57;99309.94;;;25.82;48.94
80410;BME280;69746;45.596;10.154;2023-07-29T05:18:24;99312.03;;;25.85;49.46
80410;BME280;69746;45.596;10.154;2023-07-29T05:20:50;99311.59;;;25.83;49.14
80410;BME280;69746;45.596;10.154;2023-07-29T05:23:16;99304.81;;;25.84;49.18
80410;BME280;69746;45.596;10.154;2023-07-29T05:25:42;99299.94;;;25.81;49.20
80410;BME280;69746;45.596;10.154;2023-07-29T05:28:08;99306.44;;;25.85;48.56
80410;BME280;69746;45.596;10.154;2023-07-29T05:30:34;99307.63;;;25.84;48.66
80410;BME280;69746;45.596;10.154;2023-07-29T05:33:05;99319.16;;;25.83;48.51
80410;BME280;69746;45.596;10.154;2023-07-29T05:35:34;99317.97;;;25.84;48.49
80410;BME280;69746;45.596;10.154;2023-07-29T05:38:02;99321.59;;;25.84;48.64
80410;BME280;69746;45.596;10.154;2023-07-29T05:40:30;99310.06;;;25.86;48.65
80410;BME280;69746;45.596;10.154;2023-07-29T05:42:56;99312.50;;;25.87;48.55
80410;BME280;69746;45.596;10.154;2023-07-29T05:45:22;99318.91;;;25.88;48.88
80410;BME280;69746;45.596;10.154;2023-07-29T05:47:48;99313.78;;;25.90;48.68
80410;BME280;69746;45.596;10.154;2023-07-29T05:50:15;99311.47;;;25.92;48.61
80410;BME280;69746;45.596;10.154;2023-07-29T05:52:41;99308.34;;;25.94;48.29
80410;BME280;69746;45.596;10.154;2023-07-29T05:55:07;99317.63;;;25.98;48.14
80410;BME280;69746;45.596;10.154;2023-07-29T05:57:33;99307.63;;;25.97;48.30
80410;BME280;69746;45.596;10.154;2023-07-29T05:59:59;99312.50;;;26.00;48.22
80410;BME280;69746;45.596;10.154;2023-07-29T06:02:28;99312.97;;;26.02;48.37
80410;BME280;69746;45.596;10.154;2023-07-29T06:04:53;99305.91;;;26.04;48.17
80410;BME280;69746;45.596;10.154;2023-07-29T06:07:19;99313.56;;;26.07;47.96
80410;BME280;69746;45.596;10.154;2023-07-29T06:09:46;99317.88;;;26.05;48.02
80410;BME280;69746;45.596;10.154;2023-07-29T06:12:12;99316.84;;;26.09;48.29
80410;BME280;69746;45.596;10.154;2023-07-29T06:14:37;99322.19;;;26.14;48.40
80410;BME280;69746;45.596;10.154;2023-07-29T06:17:03;99321.16;;;26.19;48.49
80410;BME280;69746;45.596;10.154;2023-07-29T06:19:29;99320.91;;;26.24;48.32
80410;BME280;69746;45.596;10.154;2023-07-29T06:21:55;99323.81;;;26.28;48.04
80410;BME280;69746;45.596;10.154;2023-07-29T06:24:21;99329.84;;;26.30;48.36
80410;BME280;69746;45.596;10.154;2023-07-29T06:26:47;99331.50;;;26.31;48.18
80410;BME280;69746;45.596;10.154;2023-07-29T06:29:16;99342.81;;;26.34;48.34
80410;BME280;69746;45.596;10.154;2023-07-29T06:31:41;99336.88;;;26.36;48.08
80410;BME280;69746;45.596;10.154;2023-07-29T06:34:07;99332.94;;;26.37;48.38
80410;BME280;69746;45.596;10.154;2023-07-29T06:36:33;99343.41;;;26.40;47.94
80410;BME280;69746;45.596;10.154;2023-07-29T06:38:59;99341.06;;;26.42;48.18
80410;BME280;69746;45.596;10.154;2023-07-29T06:41:25;99338.75;;;26.44;48.17
80410;BME280;69746;45.596;10.154;2023-07-29T06:43:50;99338.41;;;26.45;47.96
80410;BME280;69746;45.596;10.154;2023-07-29T06:46:16;99346.44;;;26.47;48.11
80410;BME280;69746;45.596;10.154;2023-07-29T06:48:42;99348.88;;;26.49;47.93
80410;BME280;69746;45.596;10.154;2023-07-29T06:51:08;99349.34;;;26.51;48.19
80410;BME280;69746;45.596;10.154;2023-07-29T06:53:34;99344.22;;;26.53;47.90
80410;BME280;69746;45.596;10.154;2023-07-29T06:56:00;99341.06;;;26.54;48.57
80410;BME280;69746;45.596;10.154;2023-07-29T06:58:26;99337.91;;;26.56;48.46
80410;BME280;69746;45.596;10.154;2023-07-29T07:00:52;99342.34;;;26.57;48.12
80410;BME280;69746;45.596;10.154;2023-07-29T07:03:18;99341.19;;;26.58;48.03
80410;BME280;69746;45.596;10.154;2023-07-29T07:05:44;99342.00;;;26.58;48.55
80410;BME280;69746;45.596;10.154;2023-07-29T07:08:11;99342.47;;;26.60;48.81
80410;BME280;69746;45.596;10.154;2023-07-29T07:10:37;99342.91;;;26.62;48.99
80410;BME280;69746;45.596;10.154;2023-07-29T07:13:02;99341.75;;;26.63;48.51
80410;BME280;69746;45.596;10.154;2023-07-29T07:15:28;99337.41;;;26.66;47.90
80410;BME280;69746;45.596;10.154;2023-07-29T07:17:57;99346.63;;;26.66;47.84
80410;BME280;69746;45.596;10.154;2023-07-29T07:20:23;99342.31;;;26.69;47.79
80410;BME280;69746;45.596;10.154;2023-07-29T07:22:48;99353.50;;;26.69;47.84
80410;BME280;69746;45.596;10.154;2023-07-29T07:25:14;99353.16;;;26.70;47.80
80410;BME280;69746;45.596;10.154;2023-07-29T07:27:40;99350.38;;;26.70;47.99
80410;BME280;69746;45.596;10.154;2023-07-29T07:30:06;99353.03;;;26.67;47.94
80410;BME280;69746;45.596;10.154;2023-07-29T07:32:32;99357.59;;;26.71;47.88
80410;BME280;69746;45.596;10.154;2023-07-29T07:34:58;99357.25;;;26.73;47.88
80410;BME280;69746;45.596;10.154;2023-07-29T07:37:24;99363.66;;;26.73;47.83
80410;BME280;69746;45.596;10.154;2023-07-29T07:39:50;99357.25;;;26.73;47.98
80410;BME280;69746;45.596;10.154;2023-07-29T07:42:18;99360.84;;;26.73;47.96
80410;BME280;69746;45.596;10.154;2023-07-29T07:44:44;99356.88;;;26.74;47.56
80410;BME280;69746;45.596;10.154;2023-07-29T07:47:10;99357.25;;;26.73;47.56
80410;BME280;69746;45.596;10.154;2023-07-29T07:49:36;99340.09;;;26.74;47.70
80410;BME280;69746;45.596;10.154;2023-07-29T07:52:08;99349.31;;;26.75;47.91
80410;BME280;69746;45.596;10.154;2023-07-29T07:54:35;99351.28;;;26.74;47.87
80410;BME280;69746;45.596;10.154;2023-07-29T07:57:01;99357.34;;;26.77;47.58
80410;BME280;69746;45.596;10.154;2023-07-29T07:59:27;99352.09;;;26.75;47.76
80410;BME280;69746;45.596;10.154;2023-07-29T08:01:55;99357.69;;;26.75;48.12
80410;BME280;69746;45.596;10.154;2023-07-29T08:04:21;99352.91;;;26.75;48.11
80410;BME280;69746;45.596;10.154;2023-07-29T08:06:47;99359.31;;;26.76;48.29
80410;BME280;69746;45.596;10.154;2023-07-29T08:09:13;99361.31;;;26.75;48.42
80410;BME280;69746;45.596;10.154;2023-07-29T08:11:39;99362.94;;;26.77;48.27
80410;BME280;69746;45.596;10.154;2023-07-29T08:14:04;99362.59;;;26.78;48.59
80410;BME280;69746;45.596;10.154;2023-07-29T08:16:30;99352.56;;;26.77;48.57
80410;BME280;69746;45.596;10.154;2023-07-29T08:18:56;99359.78;;;26.78;48.41
80410;BME280;69746;45.596;10.154;2023-07-29T08:21:22;99347.41;;;26.79;48.64
80410;BME280;69746;45.596;10.154;2023-07-29T08:23:49;99348.22;;;26.80;48.79
80410;BME280;69746;45.596;10.154;2023-07-29T08:26:15;99347.41;;;26.79;48.90
80410;BME280;69746;45.596;10.154;2023-07-29T08:28:45;99348.69;;;26.82;48.35
80410;BME280;69746;45.596;10.154;2023-07-29T08:31:11;99349.88;;;26.81;48.53
80410;BME280;69746;45.596;10.154;2023-07-29T08:33:37;99342.28;;;26.81;48.61
80410;BME280;69746;45.596;10.154;2023-07-29T08:36:03;99345.56;;;26.83;48.34
80410;BME280;69746;45.596;10.154;2023-07-29T08:38:29;99336.81;;;26.85;48.49
80410;BME280;69746;45.596;10.154;2023-07-29T08:41:06;99342.06;;;26.86;48.21
80410;BME280;69746;45.596;10.154;2023-07-29T08:43:39;99338.88;;;26.88;48.57
80410;BME280;69746;45.596;10.154;2023-07-29T08:46:07;99338.88;;;26.88;48.48
80410;BME280;69746;45.596;10.154;2023-07-29T08:48:40;99340.97;;;26.91;48.17
80410;BME280;69746;45.596;10.154;2023-07-29T08:51:09;99336.19;;;26.91;48.26
80410;BME280;69746;45.596;10.154;2023-07-29T08:53:36;99340.63;;;26.92;48.25
80410;BME280;69746;45.596;10.154;2023-07-29T08:56:06;99332.22;;;26.92;48.42
80410;BME280;69746;45.596;10.154;2023-07-29T08:58:34;99339.44;;;26.93;48.30
80410;BME280;69746;45.596;10.154;2023-07-29T09:01:00;99334.31;;;26.95;48.48
80410;BME280;69746;45.596;10.154;2023-07-29T09:03:26;99328.69;;;26.95;48.34
80410;BME280;69746;45.596;10.154;2023-07-29T09:05:52;99333.50;;;26.95;48.21
80410;BME280;69746;45.596;10.154;2023-07-29T09:08:19;99330.47;;;27.00;48.12
80410;BME280;69746;45.596;10.154;2023-07-29T09:10:47;99327.66;;;27.00;48.24
80410;BME280;69746;45.596;10.154;2023-07-29T09:13:13;99336.19;;;27.03;48.40
80410;BME280;69746;45.596;10.154;2023-07-29T09:15:39;99335.00;;;27.04;48.50
80410;BME280;69746;45.596;10.154;2023-07-29T09:18:15;99326.25;;;27.06;48.30
80410;BME280;69746;45.596;10.154;2023-07-29T09:20:47;99318.22;;;27.04;48.44
80410;BME280;69746;45.596;10.154;2023-07-29T09:23:13;99315.88;;;27.07;48.66
80410;BME280;69746;45.596;10.154;2023-07-29T09:25:40;99321.09;;;27.08;48.51
80410;BME280;69746;45.596;10.154;2023-07-29T09:28:11;99311.56;;;27.09;48.43
80410;BME280;69746;45.596;10.154;2023-07-29T09:30:40;99322.84;;;27.13;49.08
80410;BME280;69746;45.596;10.154;2023-07-29T09:33:09;99320.88;;;27.13;48.99
80410;BME280;69746;45.596;10.154;2023-07-29T09:35:36;99314.91;;;27.15;49.06
80410;BME280;69746;45.596;10.154;2023-07-29T09:38:08;99312.56;;;27.17;49.05
80410;BME280;69746;45.596;10.154;2023-07-29T09:40:37;99313.00;;;27.19;49.28
80410;BME280;69746;45.596;10.154;2023-07-29T09:43:04;99307.88;;;27.21;49.19
80410;BME280;69746;45.596;10.154;2023-07-29T09:45:34;99313.59;;;27.24;49.33
80410;BME280;69746;45.596;10.154;2023-07-29T09:48:06;99319.66;;;27.26;49.85
80410;BME280;69746;45.596;10.154;2023-07-29T09:50:38;99314.03;;;27.26;49.40
80410;BME280;69746;45.596;10.154;2023-07-29T09:53:07;99307.63;;;27.26;49.19
80410;BME280;69746;45.596;10.154;2023-07-29T09:55:33;99305.19;;;27.24;49.39
80410;BME280;69746;45.596;10.154;2023-07-29T09:58:00;99300.41;;;27.25;49.76
80410;BME280;69746;45.596;10.154;2023-07-29T10:00:31;99304.00;;;27.25;49.36
80410;BME280;69746;45.596;10.154;2023-07-29T10:02:57;99295.25;;;27.27;49.37
80410;BME280;69746;45.596;10.154;2023-07-29T10:05:27;99297.34;;;27.30;49.63
80410;BME280;69746;45.596;10.154;2023-07-29T10:07:54;99298.16;;;27.30;49.49
80410;BME280;69746;45.596;10.154;2023-07-29T10:10:20;99294.16;;;27.31;49.79
80410;BME280;69746;45.596;10.154;2023-07-29T10:12:46;99295.78;;;27.32;49.68
80410;BME280;69746;45.596;10.154;2023-07-29T10:15:15;99298.22;;;27.34;49.55
80410;BME280;69746;45.596;10.154;2023-07-29T10:17:41;99292.63;;;27.34;49.88
80410;BME280;69746;45.596;10.154;2023-07-29T10:20:09;99293.47;;;27.35;49.73
80410;BME280;69746;45.596;10.154;2023-07-29T10:22:41;99286.69;;;27.36;49.73
80410;BME280;69746;45.596;10.154;2023-07-29T10:25:09;99287.88;;;27.35;49.65
80410;BME280;69746;45.596;10.154;2023-07-29T10:27:43;99285.88;;;27.35;49.74
80410;BME280;69746;45.596;10.154;2023-07-29T10:30:12;99281.09;;;27.36;49.55
80410;BME280;69746;45.596;10.154;2023-07-29T10:32:44;99282.72;;;27.37;50.06
80410;BME280;69746;45.596;10.154;2023-07-29T10:35:13;99273.59;;;27.40;49.92
80410;BME280;69746;45.596;10.154;2023-07-29T10:37:39;99277.66;;;27.42;50.18
80410;BME280;69746;45.596;10.154;2023-07-29T10:40:07;99281.72;;;27.45;50.27
80410;BME280;69746;45.596;10.154;2023-07-29T10:42:37;99277.75;;;27.46;50.23
80410;BME280;69746;45.596;10.154;2023-07-29T10:45:20;99278.56;;;27.46;50.29
80410;BME280;69746;45.596;10.154;2023-07-29T10:47:47;99277.75;;;27.46;50.45
80410;BME280;69746;45.596;10.154;2023-07-29T10:50:21;99277.75;;;27.46;50.07
80410;BME280;69746;45.596;10.154;2023-07-29T10:52:51;99277.28;;;27.44;50.14
80410;BME280;69746;45.596;10.154;2023-07-29T10:55:26;99268.53;;;27.45;50.00
80410;BME280;69746;45.596;10.154;2023-07-29T10:58:06;99268.88;;;27.44;49.90
80410;BME280;69746;45.596;10.154;2023-07-29T11:00:36;99267.25;;;27.43;49.66
80410;BME280;69746;45.596;10.154;2023-07-29T11:03:05;99279.28;;;27.43;49.86
80410;BME280;69746;45.596;10.154;2023-07-29T11:05:51;99280.09;;;27.44;49.84
80410;BME280;69746;45.596;10.154;2023-07-29T11:08:26;99278.47;;;27.43;49.95
80410;BME280;69746;45.596;10.154;2023-07-29T11:13:32;99271.59;;;27.40;50.09
80410;BME280;69746;45.596;10.154;2023-07-29T11:15:59;99268.06;;;27.43;49.84
80410;BME280;69746;45.596;10.154;2023-07-29T11:18:28;99268.44;;;27.42;50.03
80410;BME280;69746;45.596;10.154;2023-07-29T11:20:55;99273.69;;;27.43;49.79
80410;BME280;69746;45.596;10.154;2023-07-29T11:23:28;99271.69;;;27.44;49.73
80410;BME280;69746;45.596;10.154;2023-07-29T11:25:57;99268.06;;;27.43;49.93
80410;BME280;69746;45.596;10.154;2023-07-29T11:28:25;99258.03;;;27.42;50.01
80410;BME280;69746;45.596;10.154;2023-07-29T11:30:52;99262.47;;;27.43;49.94
80410;BME280;69746;45.596;10.154;2023-07-29T11:33:21;99253.25;;;27.43;49.68
80410;BME280;69746;45.596;10.154;2023-07-29T11:35:49;99259.66;;;27.43;49.93
80410;BME280;69746;45.596;10.154;2023-07-29T11:38:17;99263.28;;;27.44;49.79
80410;BME280;69746;45.596;10.154;2023-07-29T11:41:01;99260.47;;;27.44;49.91
80410;BME280;69746;45.596;10.154;2023-07-29T11:43:29;99257.69;;;27.44;49.85
80410;BME280;69746;45.596;10.154;2023-07-29T11:46:00;99256.88;;;27.43;49.76
80410;BME280;69746;45.596;10.154;2023-07-29T11:48:31;99256.88;;;27.43;49.77
80410;BME280;69746;45.596;10.154;2023-07-29T11:50:59;99255.69;;;27.44;49.67
80410;BME280;69746;45.596;10.154;2023-07-29T11:53:29;99253.25;;;27.43;49.71
80410;BME280;69746;45.596;10.154;2023-07-29T11:56:03;99249.28;;;27.44;49.66
80410;BME280;69746;45.596;10.154;2023-07-29T11:58:30;99245.66;;;27.43;49.71
80410;BME280;69746;45.596;10.154;2023-07-29T12:00:57;99250.44;;;27.43;49.89
80410;BME280;69746;45.596;10.154;2023-07-29T12:03:25;99242.06;;;27.43;49.74
80410;BME280;69746;45.596;10.154;2023-07-29T12:05:52;99237.25;;;27.43;49.93
80410;BME280;69746;45.596;10.154;2023-07-29T12:08:19;99229.22;;;27.42;49.96
80410;BME280;69746;45.596;10.154;2023-07-29T12:10:44;99237.25;;;27.43;49.91
80410;BME280;69746;45.596;10.154;2023-07-29T12:13:13;99236.09;;;27.44;50.01
80410;BME280;69746;45.596;10.154;2023-07-29T12:15:42;99240.06;;;27.43;49.83
80410;BME280;69746;45.596;10.154;2023-07-29T12:18:07;99239.25;;;27.43;49.79
80410;BME280;69746;45.596;10.154;2023-07-29T12:20:34;99229.22;;;27.42;49.71
80410;BME280;69746;45.596;10.154;2023-07-29T12:23:00;99221.63;;;27.42;49.87
80410;BME280;69746;45.596;10.154;2023-07-29T12:25:31;99219.63;;;27.43;49.88
80410;BME280;69746;45.596;10.154;2023-07-29T12:28:05;99217.66;;;27.43;49.93
80410;BME280;69746;45.596;10.154;2023-07-29T12:30:31;99212.06;;;27.43;50.14
80410;BME280;69746;45.596;10.154;2023-07-29T12:32:58;99207.25;;;27.44;50.05
80410;BME280;69746;45.596;10.154;2023-07-29T12:35:25;99198.41;;;27.42;50.07
80410;BME280;69746;45.596;10.154;2023-07-29T12:38:01;99204.00;;;27.42;50.33
80410;BME280;69746;45.596;10.154;2023-07-29T12:40:38;99204.47;;;27.44;50.08
80410;BME280;69746;45.596;10.154;2023-07-29T12:43:04;99202.03;;;27.42;50.27
80410;BME280;69746;45.596;10.154;2023-07-29T12:45:35;99198.84;;;27.44;50.35
80410;BME280;69746;45.596;10.154;2023-07-29T12:48:01;99196.06;;;27.44;50.12
80410;BME280;69746;45.596;10.154;2023-07-29T12:50:28;99201.66;;;27.44;50.27
80410;BME280;69746;45.596;10.154;2023-07-29T12:52:54;99206.44;;;27.43;50.32
80410;BME280;69746;45.596;10.154;2023-07-29T12:55:22;99204.47;;;27.44;50.18
80410;BME280;69746;45.596;10.154;2023-07-29T12:57:51;99190.44;;;27.44;50.35
80410;BME280;69746;45.596;10.154;2023-07-29T13:00:17;99197.69;;;27.45;50.34
80410;BME280;69746;45.596;10.154;2023-07-29T13:02:43;99193.25;;;27.44;50.36
80410;BME280;69746;45.596;10.154;2023-07-29T13:05:10;99189.28;;;27.45;50.47